createdAt,value
2022-11-05T00:02:20.337Z,101442.97
2022-11-05T00:05:01.073Z,101450.41
2022-11-05T00:07:51.488Z,101446.88
2022-11-05T00:10:24.347Z,101442.69
2022-11-05T00:13:04.642Z,101445.44
2022-11-05T00:15:45.664Z,101435.25
2022-11-05T00:18:07.725Z,101430.06
2022-11-05T00:20:29.768Z,101437.69
2022-11-05T00:23:27.774Z,101436.28
2022-11-05T00:26:05.333Z,101446.94
2022-11-05T00:28:30.084Z,101443.09
2022-11-05T00:30:52.583Z,101435.66
2022-11-05T00:33:15.047Z,101438.59
2022-11-05T00:35:36.821Z,101439.09
2022-11-05T00:37:58.588Z,101445.41
2022-11-05T00:40:20.575Z,101450.59
2022-11-05T00:43:01.888Z,101450.59
2022-11-05T00:45:23.746Z,101453.06
2022-11-05T00:48:04.039Z,101454.97
2022-11-05T00:50:27.620Z,101463.22
2022-11-05T00:52:58.777Z,101460.47
2022-11-05T00:55:20.825Z,101463.22
2022-11-05T00:57:42.655Z,101458.53
2022-11-05T01:00:05.140Z,101459.34
2022-11-05T01:02:27.228Z,101459.97
2022-11-05T01:04:48.996Z,101460.91
2022-11-05T01:07:10.858Z,101456.31
2022-11-05T01:09:32.618Z,101463.03
2022-11-05T01:11:55.779Z,101474.75
2022-11-05T01:14:17.687Z,101482.56
2022-11-05T01:16:40.743Z,101489.25
2022-11-05T01:19:06.565Z,101501.56
2022-11-05T01:21:28.505Z,101502.84
2022-11-05T01:23:50.349Z,101505.16
2022-11-05T01:26:12.687Z,101502.50
2022-11-05T01:28:34.570Z,101502.31
2022-11-05T01:30:57.344Z,101507.56
2022-11-05T01:33:19.288Z,101506.25
2022-11-05T01:35:41.069Z,101514.78
2022-11-05T01:38:02.959Z,101521.38
2022-11-05T01:40:25.892Z,101514.28
2022-11-05T01:42:48.175Z,101516.50
2022-11-05T01:45:36.706Z,101526.16
2022-11-05T01:48:15.332Z,101525.63
2022-11-05T01:50:42.579Z,101522.69
2022-11-05T01:53:36.941Z,101518.28
2022-11-05T01:56:18.029Z,101523.88
2022-11-05T01:58:53.146Z,101529.97
2022-11-05T02:01:16.303Z,101526.16
2022-11-05T02:03:40.000Z,101526.78
2022-11-05T02:06:04.080Z,101529.53
2022-11-05T02:08:48.733Z,101530.63
2022-11-05T02:11:17.293Z,101529.28
2022-11-05T02:13:39.145Z,101528.75
2022-11-05T02:16:22.162Z,101514.56
2022-11-05T02:19:07.752Z,101518.19
2022-11-05T02:22:10.167Z,101515.72
2022-11-05T02:24:49.472Z,101515.53
2022-11-05T02:27:32.482Z,101512.03
2022-11-05T02:30:22.175Z,101506.03
2022-11-05T02:33:07.999Z,101507.66
2022-11-05T02:36:02.441Z,101503.31
2022-11-05T02:39:10.472Z,101499.19
2022-11-05T02:42:05.212Z,101501.44
2022-11-05T02:44:39.757Z,101500.59
2022-11-05T02:47:29.412Z,101496.53
2022-11-05T02:49:59.349Z,101494.91
2022-11-05T02:52:47.337Z,101499.59
2022-11-05T02:55:27.476Z,101491.66
2022-11-05T02:57:49.351Z,101493.88
2022-11-05T03:00:42.511Z,101493.88
2022-11-05T03:03:12.314Z,101503.50
2022-11-05T03:05:47.377Z,101500.75
2022-11-05T03:08:22.003Z,101499.75
2022-11-05T03:11:13.465Z,101496.75
2022-11-05T03:13:54.418Z,101500.91
2022-11-05T03:16:28.345Z,101493.81
2022-11-05T03:19:28.585Z,101501.78
2022-11-05T03:22:02.604Z,101497.13
2022-11-05T03:24:31.883Z,101502.91
2022-11-05T03:27:08.873Z,101508.41
2022-11-05T03:29:38.892Z,101504.81
2022-11-05T03:32:05.171Z,101505.94
2022-11-05T03:34:38.468Z,101508.97
2022-11-05T03:37:04.067Z,101517.50
2022-11-05T03:39:36.069Z,101515.84
2022-11-05T03:42:00.709Z,101523.56
2022-11-05T03:44:27.434Z,101526.59
2022-11-05T03:46:53.152Z,101522.53
2022-11-05T03:49:30.122Z,101524.72
2022-11-05T03:52:01.627Z,101520.66
2022-11-05T03:54:23.646Z,101517.38
2022-11-05T03:57:00.556Z,101519.59
2022-11-05T03:59:23.439Z,101520.19
2022-11-05T04:01:45.646Z,101525.47
2022-11-05T04:04:09.091Z,101521.06
2022-11-05T04:06:49.447Z,101520.53
2022-11-05T04:09:29.742Z,101521.66
2022-11-05T04:12:09.960Z,101525.50
2022-11-05T04:14:31.755Z,101527.19
2022-11-05T04:17:11.468Z,101537.63
2022-11-05T04:20:12.040Z,101533.56
2022-11-05T04:22:54.356Z,101541.03
2022-11-05T04:25:17.995Z,101537.44
2022-11-05T04:27:40.171Z,101535.53
2022-11-05T04:30:21.553Z,101539.38
2022-11-05T04:32:43.562Z,101544.63
2022-11-05T04:35:05.786Z,101545.44
2022-11-05T04:37:27.657Z,101541.88
2022-11-05T04:39:49.487Z,101537.50
2022-11-05T04:42:11.225Z,101548.75
2022-11-05T04:44:32.975Z,101540.03
2022-11-05T04:46:54.768Z,101541.41
2022-11-05T04:49:16.759Z,101552.66
2022-11-05T04:51:38.523Z,101544.72
2022-11-05T04:54:00.395Z,101550.50
2022-11-05T04:56:24.707Z,101555.16
2022-11-05T04:58:47.202Z,101561.19
2022-11-05T05:01:19.224Z,101567.78
2022-11-05T05:03:41.535Z,101561.78
2022-11-05T05:06:04.102Z,101563.19
2022-11-05T05:08:26.085Z,101564.28
2022-11-05T05:10:47.853Z,101568.13
2022-11-05T05:13:12.141Z,101574.72
2022-11-05T05:15:34.008Z,101574.44
2022-11-05T05:17:56.610Z,101571.50
2022-11-05T05:20:52.076Z,101572.56
2022-11-05T05:23:14.141Z,101571.53
2022-11-05T05:25:36.263Z,101574.56
2022-11-05T05:28:55.656Z,101579.22
2022-11-05T05:32:46.709Z,101573.22
2022-11-05T05:39:54.197Z,101586.66
2022-11-05T05:47:54.425Z,101577.66
2022-11-05T05:51:03.268Z,101577.38
2022-11-05T05:53:45.390Z,101584.78
2022-11-05T05:56:09.673Z,101578.50
2022-11-05T05:58:38.170Z,101578.50
2022-11-05T06:01:20.139Z,101589.44
2022-11-05T06:09:54.694Z,101586.72
2022-11-05T06:12:17.298Z,101596.28
2022-11-05T06:14:39.178Z,101597.13
2022-11-05T06:17:01.363Z,101598.19
2022-11-05T06:19:24.223Z,101598.19
2022-11-05T06:21:47.704Z,101598.19
2022-11-05T06:24:10.385Z,101594.66
2022-11-05T06:26:32.395Z,101591.91
2022-11-05T06:28:54.385Z,101603.13
2022-11-05T06:31:16.455Z,101608.09
2022-11-05T06:33:39.459Z,101611.94
2022-11-05T06:36:03.246Z,101608.66
2022-11-05T06:38:26.801Z,101611.38
2022-11-05T06:42:47.056Z,101620.44
2022-11-05T06:45:11.053Z,101613.63
2022-11-05T06:47:33.038Z,101610.06
2022-11-05T06:50:10.011Z,101614.75
2022-11-05T06:52:39.897Z,101616.66
2022-11-05T06:55:06.067Z,101611.47
2022-11-05T06:57:27.893Z,101619.66
2022-11-05T06:59:49.785Z,101627.88
2022-11-05T07:02:13.630Z,101624.06
2022-11-05T07:04:36.360Z,101624.56
2022-11-05T07:07:01.861Z,101625.91
2022-11-05T07:09:24.134Z,101621.81
2022-11-05T07:11:46.192Z,101637.13
2022-11-05T07:14:08.152Z,101629.47
2022-11-05T07:16:30.495Z,101629.69
2022-11-05T07:18:52.981Z,101638.16
2022-11-05T07:21:15.383Z,101635.13
2022-11-05T07:23:37.443Z,101646.88
2022-11-05T07:26:00.031Z,101644.09
2022-11-05T07:28:21.977Z,101642.41
2022-11-05T07:30:44.170Z,101642.91
2022-11-05T07:33:06.515Z,101649.16
2022-11-05T07:35:28.805Z,101645.25
2022-11-05T07:37:54.010Z,101642.78
2022-11-05T07:40:19.378Z,101655.03
2022-11-05T07:42:46.715Z,101647.59
2022-11-05T07:45:09.465Z,101650.00
2022-11-05T07:47:31.288Z,101647.75
2022-11-05T07:49:53.128Z,101655.63
2022-11-05T07:52:15.054Z,101648.97
2022-11-05T07:54:36.928Z,101654.41
2022-11-05T07:56:58.803Z,101657.63
2022-11-05T07:59:20.738Z,101652.31
2022-11-05T08:01:42.684Z,101658.28
2022-11-05T08:04:04.778Z,101659.56
2022-11-05T08:06:26.663Z,101652.59
2022-11-05T08:08:48.545Z,101655.50
2022-11-05T08:11:12.425Z,101655.69
2022-11-05T08:13:35.206Z,101658.59
2022-11-05T08:15:58.115Z,101653.56
2022-11-05T08:18:19.969Z,101653.50
2022-11-05T08:20:44.389Z,101653.97
2022-11-05T08:23:06.149Z,101657.72
2022-11-05T08:25:28.760Z,101656.75
2022-11-05T08:28:19.935Z,101655.19
2022-11-05T08:30:42.082Z,101649.66
2022-11-05T08:33:08.296Z,101661.56
2022-11-05T08:35:30.682Z,101660.44
2022-11-05T08:38:00.731Z,101663.28
2022-11-05T08:40:22.686Z,101657.13
2022-11-05T08:42:44.558Z,101665.50
2022-11-05T08:45:07.174Z,101662.38
2022-11-05T08:47:30.085Z,101665.03
2022-11-05T08:49:52.178Z,101663.50
2022-11-05T08:52:14.019Z,101650.19
2022-11-05T08:54:36.183Z,101654.13
2022-11-05T08:56:58.130Z,101659.09
2022-11-05T08:59:20.184Z,101665.53
2022-11-05T09:01:42.224Z,101671.44
2022-11-05T09:04:04.533Z,101667.50
2022-11-05T09:06:26.486Z,101671.75
2022-11-05T09:08:48.416Z,101669.41
2022-11-05T09:11:11.099Z,101668.19
2022-11-05T09:13:33.576Z,101672.47
2022-11-05T09:15:58.092Z,101673.16
2022-11-05T09:18:20.280Z,101668.38
2022-11-05T09:20:43.404Z,101664.91
2022-11-05T09:23:05.554Z,101670.19
2022-11-05T09:25:27.587Z,101664.75
2022-11-05T09:27:50.014Z,101673.09
2022-11-05T09:30:14.175Z,101669.28
2022-11-05T09:32:36.056Z,101669.72
2022-11-05T09:35:00.291Z,101677.56
2022-11-05T09:37:22.179Z,101677.94
2022-11-05T09:39:44.089Z,101689.16
2022-11-05T09:42:09.604Z,101682.38
2022-11-05T09:44:47.670Z,101682.75
2022-11-05T09:47:30.020Z,101676.31
2022-11-05T09:49:56.968Z,101685.59
2022-11-05T09:52:23.786Z,101686.91
2022-11-05T09:54:48.076Z,101684.47
2022-11-05T09:57:21.179Z,101683.31
2022-11-05T09:59:50.127Z,101693.53
2022-11-05T10:02:18.324Z,101694.03
2022-11-05T10:04:45.044Z,101701.38
2022-11-05T10:07:14.514Z,101704.16
2022-11-05T10:09:47.847Z,101706.19
2022-11-05T10:12:22.949Z,101702.00
2022-11-05T10:14:55.192Z,101693.38
2022-11-05T10:17:26.904Z,101703.47
2022-11-05T10:20:20.749Z,101705.78
2022-11-05T10:22:48.177Z,101707.28
2022-11-05T10:25:21.605Z,101694.34
2022-11-05T10:27:52.081Z,101717.78
2022-11-05T10:30:15.228Z,101718.31
2022-11-05T10:32:41.591Z,101712.53
2022-11-05T10:35:08.744Z,101706.84
2022-11-05T10:37:37.012Z,101711.88
2022-11-05T10:40:01.966Z,101704.91
2022-11-05T10:43:03.365Z,101705.41
2022-11-05T10:46:23.853Z,101707.22
2022-11-05T10:48:57.120Z,101707.22
2022-11-05T10:51:19.477Z,101708.03
2022-11-05T10:53:58.703Z,101712.13
2022-11-05T10:56:40.744Z,101718.44
2022-11-05T10:59:10.945Z,101715.34
2022-11-05T11:01:34.321Z,101710.03
2022-11-05T11:04:22.168Z,101707.44
2022-11-05T11:06:51.085Z,101706.31
2022-11-05T11:09:27.547Z,101706.47
2022-11-05T11:12:23.811Z,101716.06
2022-11-05T11:15:24.586Z,101716.06
2022-11-05T11:17:47.000Z,101711.69
2022-11-05T11:20:31.883Z,101708.28
2022-11-05T11:23:01.027Z,101705.84
2022-11-05T11:25:30.486Z,101711.34
2022-11-05T11:27:53.257Z,101711.03
2022-11-05T11:30:20.595Z,101701.00
2022-11-05T11:32:43.040Z,101706.16
2022-11-05T11:35:18.482Z,101711.06
2022-11-05T11:37:42.180Z,101703.25
2022-11-05T11:40:20.528Z,101712.38
2022-11-05T11:42:55.707Z,101702.63
2022-11-05T11:45:30.166Z,101697.59
2022-11-05T11:47:52.168Z,101700.69
2022-11-05T11:50:43.086Z,101691.72
2022-11-05T11:53:24.491Z,101694.03
2022-11-05T11:55:55.708Z,101697.59
2022-11-05T11:58:17.482Z,101704.75
2022-11-05T12:00:50.769Z,101702.31
2022-11-05T12:03:53.148Z,101700.69
2022-11-05T12:06:24.031Z,101702.63
2022-11-05T12:09:06.231Z,101710.59
2022-11-05T12:11:50.387Z,101702.31
2022-11-05T12:14:36.407Z,101703.13
2022-11-05T12:17:22.412Z,101694.03
2022-11-05T12:20:11.956Z,101690.44
2022-11-05T12:22:54.289Z,101688.50
2022-11-05T12:25:48.702Z,101675.84
2022-11-05T12:29:17.333Z,101688.00
2022-11-05T12:31:51.918Z,101694.69
2022-11-05T12:34:58.300Z,101694.81
2022-11-05T12:37:55.709Z,101696.13
2022-11-05T12:41:11.781Z,101690.78
2022-11-05T12:43:42.648Z,101690.63
2022-11-05T12:46:29.263Z,101684.59
2022-11-05T12:49:22.355Z,101673.53
2022-11-05T12:52:07.295Z,101679.53
2022-11-05T12:55:11.110Z,101667.50
2022-11-05T12:57:40.886Z,101663.53
2022-11-05T13:00:16.753Z,101659.47
2022-11-05T13:03:01.383Z,101648.88
2022-11-05T13:05:42.900Z,101645.63
2022-11-05T13:08:29.190Z,101645.50
2022-11-05T13:11:19.933Z,101646.13
2022-11-05T13:13:52.821Z,101645.03
2022-11-05T13:16:37.645Z,101644.53
2022-11-05T13:19:30.187Z,101641.47
2022-11-05T13:22:09.512Z,101632.53
2022-11-05T13:24:42.207Z,101635.97
2022-11-05T13:27:41.636Z,101634.31
2022-11-05T13:30:07.386Z,101632.41
2022-11-05T13:32:39.508Z,101622.94
2022-11-05T13:35:07.324Z,101619.88
2022-11-05T13:37:58.176Z,101615.94
2022-11-05T13:40:40.446Z,101613.50
2022-11-05T13:43:16.810Z,101610.72
2022-11-05T13:46:16.099Z,101614.34
2022-11-05T13:49:32.728Z,101610.72
2022-11-05T13:52:19.185Z,101600.50
2022-11-05T13:55:18.877Z,101599.22
2022-11-05T13:58:15.680Z,101595.78
2022-11-05T14:01:07.785Z,101586.56
2022-11-05T14:03:30.303Z,101592.88
2022-11-05T14:06:12.562Z,101591.72
2022-11-05T14:08:43.099Z,101592.88
2022-11-05T14:11:26.270Z,101599.53
2022-11-05T14:13:56.916Z,101606.22
2022-11-05T14:16:23.281Z,101591.91
2022-11-05T14:18:47.813Z,101593.88
2022-11-05T14:21:28.037Z,101593.69
2022-11-05T14:23:59.610Z,101594.34
2022-11-05T14:26:30.635Z,101595.50
2022-11-05T14:29:04.692Z,101597.13
2022-11-05T14:34:46.487Z,101606.56
2022-11-05T14:37:11.345Z,101599.41
2022-11-05T14:39:33.323Z,101598.91
2022-11-05T14:42:06.324Z,101596.13
2022-11-05T14:44:31.070Z,101594.53
2022-11-05T14:46:59.716Z,101602.00
2022-11-05T14:49:29.361Z,101600.38
2022-11-05T14:52:05.536Z,101596.31
2022-11-05T14:54:49.021Z,101589.19
2022-11-05T14:57:41.804Z,101586.91
2022-11-05T15:00:05.995Z,101584.81
2022-11-05T15:02:37.429Z,101588.53
2022-11-05T15:05:47.152Z,101590.31
2022-11-05T15:08:26.954Z,101588.88
2022-11-05T15:10:50.673Z,101591.16
2022-11-05T15:13:37.637Z,101592.28
2022-11-05T15:15:59.764Z,101590.81
2022-11-05T15:18:42.657Z,101597.81
2022-11-05T15:21:10.637Z,101597.16
2022-11-05T15:23:44.384Z,101591.94
2022-11-05T15:26:23.742Z,101593.41
2022-11-05T15:28:54.208Z,101593.72
2022-11-05T15:31:16.142Z,101591.63
2022-11-05T15:33:39.192Z,101588.69
2022-11-05T15:36:28.465Z,101594.19
2022-11-05T15:39:15.059Z,101584.94
2022-11-05T15:41:34.446Z,101582.00
2022-11-05T15:43:56.619Z,101585.91
2022-11-05T15:46:30.879Z,101584.09
2022-11-05T15:48:58.242Z,101583.94
2022-11-05T15:51:24.589Z,101579.53
2022-11-05T15:54:15.652Z,101579.88
2022-11-05T15:56:47.022Z,101581.84
2022-11-05T15:59:19.907Z,101582.16
2022-11-05T16:02:19.904Z,101577.75
2022-11-05T16:04:48.679Z,101585.38
2022-11-05T16:07:12.157Z,101587.31
2022-11-05T16:09:40.138Z,101584.88
2022-11-05T16:12:20.252Z,101585.22
2022-11-05T16:14:42.572Z,101579.22
2022-11-05T16:17:23.568Z,101578.88
2022-11-05T16:19:46.967Z,101572.88
2022-11-05T16:22:08.860Z,101576.75
2022-11-05T16:24:31.160Z,101572.88
2022-11-05T16:27:03.273Z,101571.56
2022-11-05T16:29:50.417Z,101569.13
2022-11-05T16:32:29.538Z,101573.34
2022-11-05T16:35:04.831Z,101569.28
2022-11-05T16:37:37.676Z,101569.59
2022-11-05T16:39:59.695Z,101571.84
2022-11-05T16:42:24.803Z,101573.00
2022-11-05T16:44:46.661Z,101565.53
2022-11-05T16:47:08.616Z,101568.63
2022-11-05T16:49:30.459Z,101568.13
2022-11-05T16:51:52.633Z,101563.72
2022-11-05T16:54:14.548Z,101563.56
2022-11-05T16:56:37.031Z,101567.13
2022-11-05T16:58:59.682Z,101568.59
2022-11-05T17:01:23.932Z,101559.50
2022-11-05T17:03:47.636Z,101556.75
2022-11-05T17:06:09.562Z,101553.50
2022-11-05T17:08:31.506Z,101561.78
2022-11-05T17:10:53.338Z,101561.78
2022-11-05T17:13:17.714Z,101566.47
2022-11-05T17:15:39.614Z,101561.56
2022-11-05T17:18:03.700Z,101565.19
2022-11-05T17:20:25.441Z,101575.56
2022-11-05T17:22:47.333Z,101575.88
2022-11-05T17:25:09.380Z,101577.50
2022-11-05T17:27:31.200Z,101578.31
2022-11-05T17:29:53.051Z,101579.13
2022-11-05T17:32:14.959Z,101579.13
2022-11-05T17:34:36.943Z,101578.81
2022-11-05T17:36:58.808Z,101572.81
2022-11-05T17:39:20.668Z,101579.94
2022-11-05T17:41:43.395Z,101570.03
2022-11-05T17:44:05.300Z,101575.06
2022-11-05T17:46:28.038Z,101567.59
2022-11-05T17:48:50.214Z,101575.38
2022-11-05T17:51:17.275Z,101567.44
2022-11-05T17:53:39.513Z,101570.84
2022-11-05T17:56:01.775Z,101570.00
2022-11-05T17:58:23.831Z,101569.69
2022-11-05T18:00:47.291Z,101571.66
2022-11-05T18:03:11.682Z,101575.22
2022-11-05T18:05:35.026Z,101571.31
2022-11-05T18:07:57.769Z,101576.34
2022-11-05T18:10:20.022Z,101577.97
2022-11-05T18:12:42.708Z,101585.09
2022-11-05T18:15:06.250Z,101585.59
2022-11-05T18:17:28.426Z,101582.84
2022-11-05T18:19:50.429Z,101588.03
2022-11-05T18:22:12.255Z,101594.38
2022-11-05T18:24:34.354Z,101594.88
2022-11-05T18:26:56.139Z,101603.16
2022-11-05T18:29:17.969Z,101592.59
2022-11-05T18:31:39.851Z,101587.41
2022-11-05T18:34:02.058Z,101584.97
2022-11-05T18:36:29.647Z,101578.97
2022-11-05T18:38:52.800Z,101574.56
2022-11-05T18:41:16.149Z,101580.09
2022-11-05T18:43:37.963Z,101581.72
2022-11-05T18:45:59.917Z,101575.06
2022-11-05T18:48:21.967Z,101575.88
2022-11-05T18:50:43.813Z,101572.94
2022-11-05T18:53:05.639Z,101572.31
2022-11-05T18:55:27.558Z,101568.75
2022-11-05T18:57:49.647Z,101575.06
2022-11-05T19:00:12.673Z,101575.38
2022-11-05T19:02:34.646Z,101568.09
2022-11-05T19:07:39.930Z,101570.66
2022-11-05T19:10:01.834Z,101562.69
2022-11-05T19:12:23.701Z,101549.22
2022-11-05T19:14:46.015Z,101560.56
2022-11-05T19:17:07.890Z,101557.00
2022-11-05T19:19:29.776Z,101556.19
2022-11-05T19:21:52.359Z,101550.69
2022-11-05T19:24:17.467Z,101557.31
2022-11-05T19:26:39.400Z,101551.63
2022-11-05T19:29:03.707Z,101551.94
2022-11-05T19:31:27.092Z,101554.69
2022-11-05T19:33:52.128Z,101544.63
2022-11-05T19:36:16.506Z,101551.59
2022-11-05T19:38:40.020Z,101550.28
2022-11-05T19:41:12.083Z,101550.28
2022-11-05T19:43:36.311Z,101558.06
2022-11-05T19:45:58.121Z,101557.91
2022-11-05T19:48:21.066Z,101549.94
2022-11-05T19:50:44.450Z,101549.75
2022-11-05T19:53:06.896Z,101545.69
2022-11-05T19:55:28.751Z,101552.66
2022-11-05T19:57:50.650Z,101552.47
2022-11-05T20:00:14.000Z,101547.28
2022-11-05T20:02:35.885Z,101543.53
2022-11-05T20:04:57.854Z,101522.63
2022-11-05T20:07:20.419Z,101507.03
2022-11-05T20:09:42.509Z,101519.31
2022-11-05T20:12:04.505Z,101525.16
2022-11-05T20:14:27.282Z,101533.53
2022-11-05T20:16:50.509Z,101536.41
2022-11-05T20:19:19.861Z,101526.69
2022-11-05T20:21:42.636Z,101526.47
2022-11-05T20:24:05.170Z,101531.50
2022-11-05T20:26:27.611Z,101530.16
2022-11-05T20:28:49.660Z,101523.81
2022-11-05T20:31:18.002Z,101517.50
2022-11-05T20:33:41.675Z,101531.28
2022-11-05T20:36:08.071Z,101532.63
2022-11-05T20:38:30.332Z,101532.44
2022-11-05T20:40:52.309Z,101524.78
2022-11-05T20:43:14.174Z,101532.22
2022-11-05T20:45:38.339Z,101526.72
2022-11-05T20:48:00.174Z,101533.03
2022-11-05T20:50:21.999Z,101534.66
2022-11-05T20:52:43.949Z,101535.47
2022-11-05T20:55:09.101Z,101532.72
2022-11-05T20:57:31.077Z,101535.47
2022-11-05T20:59:53.042Z,101540.19
2022-11-05T21:02:15.042Z,101523.31
2022-11-05T21:04:37.408Z,101529.16
2022-11-05T21:06:59.307Z,101519.75
2022-11-05T21:09:21.549Z,101518.66
2022-11-05T21:12:01.765Z,101519.75
2022-11-05T21:14:23.800Z,101539.38
2022-11-05T21:16:45.713Z,101530.28
2022-11-05T21:19:08.015Z,101531.91
2022-11-05T21:21:29.809Z,101536.78
2022-11-05T21:23:51.616Z,101545.06
2022-11-05T21:26:15.314Z,101539.53
2022-11-05T21:28:40.178Z,101537.59
2022-11-05T21:31:05.063Z,101551.06
2022-11-05T21:33:27.299Z,101545.84
2022-11-05T21:35:49.246Z,101540.06
2022-11-05T21:38:14.197Z,101548.31
2022-11-05T21:40:36.816Z,101549.41
2022-11-05T21:42:58.590Z,101536.50
2022-11-05T21:45:20.392Z,101533.44
2022-11-05T21:47:42.614Z,101531.19
2022-11-05T21:50:04.741Z,101525.69
2022-11-05T21:52:44.952Z,101532.31
2022-11-05T21:55:25.687Z,101524.06
2022-11-05T21:58:05.949Z,101511.19
2022-11-05T22:00:27.827Z,101517.81
2022-11-05T22:02:49.779Z,101519.47
2022-11-05T22:05:11.998Z,101513.94
2022-11-05T22:07:37.872Z,101511.00
2022-11-05T22:10:00.287Z,101503.38
2022-11-05T22:12:22.848Z,101501.25
2022-11-05T22:14:44.701Z,101498.81
2022-11-05T22:17:07.789Z,101492.00
2022-11-05T22:19:30.906Z,101487.13
2022-11-05T22:21:53.216Z,101492.13
2022-11-05T22:24:15.965Z,101482.25
2022-11-05T22:26:39.710Z,101491.63
2022-11-05T22:29:01.600Z,101487.03
2022-11-05T22:31:23.484Z,101489.63
2022-11-05T22:33:45.256Z,101489.13
2022-11-05T22:36:07.894Z,101482.00
2022-11-05T22:38:31.107Z,101474.56
2022-11-05T22:40:52.990Z,101476.50
2022-11-05T22:43:14.763Z,101470.16
2022-11-05T22:45:37.275Z,101469.34
2022-11-05T22:48:00.698Z,101480.06
2022-11-05T22:50:25.751Z,101479.72
2022-11-05T22:52:47.594Z,101480.88
2022-11-05T22:55:09.910Z,101480.06
2022-11-05T22:57:32.216Z,101479.41
2022-11-05T22:59:54.046Z,101480.22
2022-11-05T23:02:16.086Z,101483.81
2022-11-05T23:04:38.735Z,101482.97
2022-11-05T23:07:27.670Z,101468.09
2022-11-05T23:10:08.128Z,101471.66
2022-11-05T23:12:39.936Z,101454.66
2022-11-05T23:15:06.046Z,101464.56
2022-11-05T23:17:47.443Z,101459.53
2022-11-05T23:20:35.803Z,101451.59
2022-11-05T23:23:17.104Z,101447.53
2022-11-05T23:25:39.006Z,101444.28
2022-11-05T23:28:07.690Z,101440.72
2022-11-05T23:30:29.927Z,101441.81
2022-11-05T23:32:53.465Z,101433.06
2022-11-05T23:35:16.463Z,101431.44
2022-11-05T23:37:57.005Z,101427.88
2022-11-05T23:40:23.643Z,101432.91
2022-11-05T23:43:04.885Z,101429.84
2022-11-05T23:45:45.761Z,101415.56
2022-11-05T23:48:21.316Z,101433.19
2022-11-05T23:50:57.434Z,101436.75
2022-11-05T23:53:20.077Z,101443.69
2022-11-05T23:55:42.353Z,101440.47
2022-11-05T23:58:04.232Z,101434.97
